createdAt,value
2022-12-29T00:01:53.452Z,2.42
2022-12-29T00:04:20.494Z,2.30
2022-12-29T00:06:47.322Z,2.22
2022-12-29T00:09:15.202Z,2.55
2022-12-29T00:11:42.015Z,1.55
2022-12-29T00:14:31.468Z,1.40
2022-12-29T00:16:58.355Z,1.95
2022-12-29T00:19:43.771Z,1.85
2022-12-29T00:22:33.834Z,1.80
2022-12-29T00:25:01.040Z,2.33
2022-12-29T00:27:47.813Z,1.77
2022-12-29T00:30:36.100Z,1.83
2022-12-29T00:33:35.289Z,1.77
2022-12-29T00:36:16.335Z,1.80
2022-12-29T00:39:06.370Z,1.67
2022-12-29T00:41:51.775Z,2.15
2022-12-29T00:44:18.541Z,1.85
2022-12-29T00:46:45.344Z,1.42
2022-12-29T00:49:32.641Z,1.38
2022-12-29T00:52:08.514Z,2.05
2022-12-29T00:54:37.746Z,1.65
2022-12-29T00:57:07.280Z,1.60
2022-12-29T00:59:36.455Z,1.30
2022-12-29T01:02:03.192Z,1.35
2022-12-29T01:04:30.230Z,1.50
2022-12-29T01:06:56.898Z,1.50
2022-12-29T01:09:42.424Z,1.60
2022-12-29T01:12:10.110Z,1.55
2022-12-29T01:14:37.394Z,1.50
2022-12-29T01:17:05.232Z,1.45
2022-12-29T01:19:31.973Z,1.25
2022-12-29T01:21:58.738Z,1.70
2022-12-29T01:24:26.994Z,1.63
2022-12-29T01:26:55.337Z,1.70
2022-12-29T01:29:22.219Z,1.90
2022-12-29T01:31:50.442Z,1.77
2022-12-29T01:34:17.721Z,2.00
2022-12-29T01:36:45.005Z,1.60
2022-12-29T01:39:11.869Z,2.38
2022-12-29T01:41:38.592Z,2.05
2022-12-29T01:44:43.722Z,1.80
2022-12-29T01:47:10.615Z,1.67
2022-12-29T01:49:37.272Z,1.80
2022-12-29T01:52:08.349Z,1.92
2022-12-29T01:54:41.056Z,1.83
2022-12-29T01:57:11.841Z,1.85
2022-12-29T01:59:43.521Z,1.73
2022-12-29T02:02:10.778Z,1.63
2022-12-29T02:04:41.456Z,1.45
2022-12-29T02:07:15.060Z,1.70
2022-12-29T02:09:43.295Z,1.73
2022-12-29T02:12:11.007Z,1.60
2022-12-29T02:14:37.722Z,1.20
2022-12-29T02:17:13.327Z,1.63
2022-12-29T02:19:59.724Z,1.17
2022-12-29T02:22:28.788Z,1.33
2022-12-29T02:25:23.966Z,1.50
2022-12-29T02:28:19.445Z,1.35
2022-12-29T02:31:04.684Z,1.33
2022-12-29T02:34:07.882Z,1.40
2022-12-29T02:36:58.972Z,1.20
2022-12-29T02:39:51.338Z,1.15
2022-12-29T02:42:32.933Z,1.10
2022-12-29T02:45:13.342Z,1.30
2022-12-29T02:47:43.851Z,0.88
2022-12-29T02:50:19.998Z,0.77
2022-12-29T02:52:52.857Z,1.00
2022-12-29T02:55:19.654Z,0.85
2022-12-29T02:57:46.313Z,1.00
2022-12-29T03:00:18.159Z,0.73
2022-12-29T03:03:03.241Z,1.45
2022-12-29T03:06:07.112Z,0.60
2022-12-29T03:09:19.132Z,0.80
2022-12-29T03:12:09.265Z,0.68
2022-12-29T03:15:19.348Z,0.75
2022-12-29T03:18:26.053Z,0.52
2022-12-29T03:21:18.317Z,0.50
2022-12-29T03:23:48.698Z,0.80
2022-12-29T03:26:17.852Z,0.65
2022-12-29T03:28:54.011Z,0.50
2022-12-29T03:31:22.666Z,0.50
2022-12-29T03:33:50.755Z,0.80
2022-12-29T03:36:27.468Z,0.65
2022-12-29T03:39:07.444Z,0.60
2022-12-29T03:41:35.274Z,0.70
2022-12-29T03:44:01.961Z,0.57
2022-12-29T03:46:28.720Z,0.70
2022-12-29T03:48:55.465Z,0.60
2022-12-29T03:51:22.201Z,0.70
2022-12-29T03:53:48.794Z,0.40
2022-12-29T03:56:15.393Z,0.63
2022-12-29T03:58:42.094Z,0.85
2022-12-29T04:01:08.903Z,0.68
2022-12-29T04:03:35.692Z,0.90
2022-12-29T04:06:02.463Z,1.35
2022-12-29T04:08:29.153Z,0.82
2022-12-29T04:10:55.912Z,0.90
2022-12-29T04:13:22.564Z,0.90
2022-12-29T04:15:49.486Z,0.90
2022-12-29T04:18:17.043Z,0.90
2022-12-29T04:21:00.767Z,1.00
2022-12-29T04:23:28.548Z,0.93
2022-12-29T04:25:55.187Z,1.38
2022-12-29T04:28:21.833Z,0.82
2022-12-29T04:30:48.801Z,0.85
2022-12-29T04:33:15.730Z,1.13
2022-12-29T04:35:44.093Z,1.20
2022-12-29T04:38:11.011Z,1.02
2022-12-29T04:40:40.698Z,1.10
2022-12-29T04:43:08.041Z,0.90
2022-12-29T04:45:34.785Z,1.05
2022-12-29T04:48:01.534Z,1.02
2022-12-29T04:50:28.282Z,0.93
2022-12-29T04:52:55.470Z,1.35
2022-12-29T04:55:22.187Z,1.08
2022-12-29T04:57:48.773Z,1.20
2022-12-29T05:00:15.701Z,1.05
2022-12-29T05:02:42.623Z,0.55
2022-12-29T05:05:09.871Z,1.00
2022-12-29T05:07:36.624Z,1.00
2022-12-29T05:10:03.983Z,1.08
2022-12-29T05:12:34.740Z,1.77
2022-12-29T05:15:01.676Z,1.10
2022-12-29T05:17:28.315Z,0.90
2022-12-29T05:19:55.011Z,1.33
2022-12-29T05:22:22.104Z,1.10
2022-12-29T05:24:48.758Z,1.52
2022-12-29T05:27:15.532Z,1.23
2022-12-29T05:29:42.245Z,1.60
2022-12-29T05:32:08.877Z,1.20
2022-12-29T05:34:35.463Z,1.70
2022-12-29T05:37:03.537Z,1.00
2022-12-29T05:39:30.386Z,1.05
2022-12-29T05:41:57.045Z,1.42
2022-12-29T05:44:23.878Z,1.30
2022-12-29T05:46:50.712Z,1.63
2022-12-29T05:49:18.080Z,1.23
2022-12-29T05:51:45.051Z,1.25
2022-12-29T05:54:11.720Z,1.50
2022-12-29T05:56:38.283Z,2.08
2022-12-29T05:59:04.937Z,2.47
2022-12-29T06:01:31.659Z,0.95
2022-12-29T06:03:58.398Z,1.00
2022-12-29T06:06:25.080Z,1.48
2022-12-29T06:08:51.751Z,1.77
2022-12-29T06:11:18.415Z,1.60
2022-12-29T06:13:45.002Z,1.77
2022-12-29T06:16:11.770Z,1.95
2022-12-29T06:18:38.484Z,2.03
2022-12-29T06:21:06.244Z,2.15
2022-12-29T06:23:33.365Z,1.15
2022-12-29T06:26:00.006Z,1.52
2022-12-29T06:28:26.705Z,1.40
2022-12-29T06:30:53.349Z,2.05
2022-12-29T06:33:20.102Z,1.83
2022-12-29T06:35:46.999Z,1.65
2022-12-29T06:38:14.105Z,1.45
2022-12-29T06:40:42.173Z,1.77
2022-12-29T06:43:08.808Z,2.30
2022-12-29T06:45:35.431Z,1.55
2022-12-29T06:48:02.068Z,1.58
2022-12-29T06:50:28.718Z,1.60
2022-12-29T06:52:55.321Z,1.83
2022-12-29T06:55:22.212Z,1.60
2022-12-29T06:57:48.893Z,1.95
2022-12-29T07:00:22.308Z,2.13
2022-12-29T07:02:49.573Z,1.88
2022-12-29T07:05:16.340Z,1.40
2022-12-29T07:07:42.946Z,1.55
2022-12-29T07:10:09.699Z,1.40
2022-12-29T07:12:36.276Z,1.80
2022-12-29T07:15:03.089Z,1.80
2022-12-29T07:17:29.709Z,1.27
2022-12-29T07:19:56.397Z,1.58
2022-12-29T07:22:23.202Z,2.15
2022-12-29T07:24:49.803Z,1.05
2022-12-29T07:27:16.608Z,1.45
2022-12-29T07:29:43.297Z,1.60
2022-12-29T07:32:09.964Z,1.10
2022-12-29T07:34:36.664Z,1.08
2022-12-29T07:37:03.494Z,0.98
2022-12-29T07:39:30.089Z,1.38
2022-12-29T07:42:02.742Z,1.40
2022-12-29T07:44:31.419Z,1.40
2022-12-29T07:46:59.011Z,2.30
2022-12-29T07:49:25.954Z,1.70
2022-12-29T07:51:52.905Z,1.80
2022-12-29T07:54:19.598Z,1.85
2022-12-29T07:56:47.011Z,2.30
2022-12-29T07:59:13.651Z,1.30
2022-12-29T08:01:40.449Z,1.33
2022-12-29T08:04:07.610Z,1.90
2022-12-29T08:06:34.413Z,1.80
2022-12-29T08:09:11.026Z,1.45
2022-12-29T08:11:37.968Z,1.45
2022-12-29T08:14:04.925Z,2.22
2022-12-29T08:16:31.616Z,1.52
2022-12-29T08:18:58.324Z,2.47
2022-12-29T08:21:24.966Z,1.50
2022-12-29T08:23:51.528Z,1.95
2022-12-29T08:26:18.161Z,2.25
2022-12-29T08:28:45.313Z,2.20
2022-12-29T08:31:12.236Z,1.73
2022-12-29T08:33:39.264Z,1.48
2022-12-29T08:36:08.043Z,1.02
2022-12-29T08:38:34.793Z,2.00
2022-12-29T08:41:04.509Z,1.77
2022-12-29T08:43:31.573Z,1.92
2022-12-29T08:45:59.273Z,1.65
2022-12-29T08:48:27.023Z,1.42
2022-12-29T08:50:53.796Z,1.45
2022-12-29T08:53:20.975Z,2.08
2022-12-29T08:55:48.519Z,2.15
2022-12-29T08:58:15.639Z,1.88
2022-12-29T09:00:43.329Z,1.83
2022-12-29T09:03:10.287Z,1.42
2022-12-29T09:05:37.290Z,3.15
2022-12-29T09:08:05.249Z,2.10
2022-12-29T09:10:32.151Z,2.15
2022-12-29T09:12:59.101Z,2.10
2022-12-29T09:15:25.708Z,1.55
2022-12-29T09:17:52.378Z,1.90
2022-12-29T09:20:20.607Z,1.80
2022-12-29T09:22:48.155Z,1.23
2022-12-29T09:25:15.282Z,1.60
2022-12-29T09:27:42.270Z,1.27
2022-12-29T09:30:11.584Z,1.90
2022-12-29T09:32:44.555Z,1.38
2022-12-29T09:35:12.002Z,1.90
2022-12-29T09:37:38.663Z,2.47
2022-12-29T09:40:06.851Z,1.55
2022-12-29T09:42:46.633Z,1.92
2022-12-29T09:45:19.147Z,1.40
2022-12-29T09:47:47.039Z,1.63
2022-12-29T09:50:28.056Z,1.50
2022-12-29T09:53:12.555Z,1.80
2022-12-29T09:55:57.156Z,1.67
2022-12-29T09:58:40.324Z,1.52
2022-12-29T10:01:30.806Z,1.83
2022-12-29T10:03:59.409Z,1.33
2022-12-29T10:07:11.070Z,1.30
2022-12-29T10:09:38.310Z,1.80
2022-12-29T10:12:38.240Z,1.90
2022-12-29T10:15:19.432Z,1.92
2022-12-29T10:17:49.044Z,1.98
2022-12-29T10:20:36.960Z,1.50
2022-12-29T10:23:15.756Z,1.67
2022-12-29T10:25:44.466Z,1.58
2022-12-29T10:28:44.757Z,1.70
2022-12-29T10:31:39.091Z,1.70
2022-12-29T10:34:19.114Z,1.70
2022-12-29T10:36:49.791Z,1.65
2022-12-29T10:39:31.133Z,1.33
2022-12-29T10:42:26.453Z,2.17
2022-12-29T10:44:58.274Z,1.60
2022-12-29T10:47:29.639Z,1.70
2022-12-29T10:49:59.260Z,2.50
2022-12-29T10:52:27.566Z,2.03
2022-12-29T10:54:59.305Z,1.85
2022-12-29T10:57:32.003Z,2.22
2022-12-29T10:59:59.308Z,2.70
2022-12-29T11:02:55.103Z,2.55
2022-12-29T11:05:30.722Z,2.33
2022-12-29T11:08:02.816Z,2.83
2022-12-29T11:10:37.881Z,3.55
2022-12-29T11:13:16.573Z,2.63
2022-12-29T11:15:48.483Z,4.63
2022-12-29T11:18:25.467Z,3.20
2022-12-29T11:21:00.036Z,2.90
2022-12-29T11:23:35.416Z,2.92
2022-12-29T11:26:11.397Z,3.03
2022-12-29T11:28:39.443Z,3.22
2022-12-29T11:31:08.326Z,3.42
2022-12-29T11:33:40.495Z,3.25
2022-12-29T11:36:21.161Z,2.88
2022-12-29T11:38:53.955Z,2.58
2022-12-29T11:41:26.875Z,2.53
2022-12-29T11:43:56.699Z,2.95
2022-12-29T11:46:33.754Z,3.30
2022-12-29T11:49:01.613Z,2.80
2022-12-29T11:51:31.553Z,2.55
2022-12-29T11:54:01.206Z,3.83
2022-12-29T11:56:41.229Z,2.65
2022-12-29T11:59:37.376Z,2.72
2022-12-29T12:02:17.745Z,3.85
2022-12-29T12:04:44.600Z,3.05
2022-12-29T12:07:18.868Z,3.63
2022-12-29T12:09:59.022Z,3.10
2022-12-29T12:12:40.990Z,2.17
2022-12-29T12:15:19.579Z,3.17
2022-12-29T12:17:54.285Z,3.38
2022-12-29T12:20:34.142Z,3.13
2022-12-29T12:23:33.744Z,2.65
2022-12-29T12:26:11.373Z,2.88
2022-12-29T12:28:50.686Z,3.47
2022-12-29T12:31:39.509Z,3.22
2022-12-29T12:34:15.166Z,3.10
2022-12-29T12:36:53.911Z,2.67
2022-12-29T12:39:32.684Z,2.33
2022-12-29T12:42:11.593Z,3.05
2022-12-29T12:44:38.228Z,2.95
2022-12-29T12:47:31.995Z,3.38
2022-12-29T12:50:32.937Z,3.42
2022-12-29T12:53:22.102Z,2.88
2022-12-29T12:56:03.704Z,3.38
2022-12-29T12:58:54.746Z,3.20
2022-12-29T13:01:43.208Z,2.40
2022-12-29T13:04:40.776Z,2.13
2022-12-29T13:07:18.918Z,2.30
2022-12-29T13:10:03.121Z,2.20
2022-12-29T13:13:07.286Z,2.95
2022-12-29T13:15:52.865Z,2.42
2022-12-29T13:18:40.209Z,2.40
2022-12-29T13:21:33.129Z,2.28
2022-12-29T13:24:16.925Z,2.33
2022-12-29T13:26:52.049Z,2.00
2022-12-29T13:30:03.288Z,2.08
2022-12-29T13:32:52.592Z,2.55
2022-12-29T13:35:42.397Z,2.53
2022-12-29T13:38:15.531Z,2.67
2022-12-29T13:40:47.116Z,2.20
2022-12-29T13:43:16.692Z,2.10
2022-12-29T13:45:46.208Z,4.20
2022-12-29T13:48:23.518Z,2.47
2022-12-29T13:51:01.061Z,2.42
2022-12-29T13:53:37.685Z,2.90
2022-12-29T13:56:25.527Z,2.72
2022-12-29T13:58:59.283Z,3.05
2022-12-29T14:01:49.447Z,2.75
2022-12-29T14:04:24.430Z,2.45
2022-12-29T14:07:06.606Z,3.17
2022-12-29T14:09:49.525Z,3.03
2022-12-29T14:12:37.438Z,2.92
2022-12-29T14:15:12.209Z,3.30
2022-12-29T14:17:40.851Z,3.33
2022-12-29T14:20:20.465Z,4.38
2022-12-29T14:23:18.348Z,2.00
2022-12-29T14:26:05.795Z,1.95
2022-12-29T14:28:41.496Z,2.70
2022-12-29T14:31:20.229Z,1.83
2022-12-29T14:34:08.390Z,1.40
2022-12-29T14:36:40.464Z,1.80
2022-12-29T14:39:35.886Z,1.40
2022-12-29T14:42:11.704Z,1.00
2022-12-29T14:45:00.126Z,1.95
2022-12-29T14:47:37.707Z,2.15
2022-12-29T14:50:13.895Z,3.13
2022-12-29T14:53:03.704Z,2.08
2022-12-29T14:55:54.756Z,1.67
2022-12-29T14:58:29.527Z,1.80
2022-12-29T15:00:56.948Z,2.00
2022-12-29T15:03:45.591Z,2.10
2022-12-29T15:06:17.874Z,2.05
2022-12-29T15:09:16.032Z,1.55
2022-12-29T15:11:49.609Z,2.63
2022-12-29T15:14:59.148Z,2.33
2022-12-29T15:17:28.346Z,3.33
2022-12-29T15:19:56.763Z,2.00
2022-12-29T15:22:24.877Z,2.17
2022-12-29T15:24:53.677Z,1.80
2022-12-29T15:27:23.738Z,1.83
2022-12-29T15:30:02.817Z,2.70
2022-12-29T15:32:39.988Z,2.72
2022-12-29T15:35:22.967Z,2.35
2022-12-29T15:37:49.570Z,3.45
2022-12-29T15:40:31.574Z,2.88
2022-12-29T15:43:07.062Z,2.78
2022-12-29T15:45:36.454Z,3.60
2022-12-29T15:48:05.712Z,3.63
2022-12-29T15:50:34.810Z,3.72
2022-12-29T15:53:02.698Z,4.35
2022-12-29T15:55:38.464Z,3.95
2022-12-29T15:58:17.330Z,3.15
2022-12-29T16:00:49.173Z,3.65
2022-12-29T16:05:52.198Z,1.77
2022-12-29T16:08:40.705Z,3.40
2022-12-29T16:11:30.422Z,4.28
2022-12-29T16:13:57.698Z,2.92
2022-12-29T16:16:39.338Z,2.60
2022-12-29T16:19:24.883Z,2.40
2022-12-29T16:21:52.163Z,2.10
2022-12-29T16:24:26.453Z,3.00
2022-12-29T16:27:17.205Z,3.33
2022-12-29T16:29:44.165Z,2.42
2022-12-29T16:32:32.225Z,3.00
2022-12-29T16:35:18.447Z,2.65
2022-12-29T16:37:45.937Z,3.30
2022-12-29T16:40:21.632Z,3.03
2022-12-29T16:42:51.883Z,2.20
2022-12-29T16:45:39.377Z,2.28
2022-12-29T16:48:06.046Z,2.00
2022-12-29T16:50:35.525Z,2.33
2022-12-29T16:53:04.284Z,2.42
2022-12-29T16:55:31.625Z,2.10
2022-12-29T16:58:00.028Z,2.42
2022-12-29T17:00:37.178Z,1.27
2022-12-29T17:03:04.703Z,2.38
2022-12-29T17:05:31.421Z,1.83
2022-12-29T17:08:01.560Z,2.13
2022-12-29T17:10:48.380Z,1.58
2022-12-29T17:13:15.017Z,2.03
2022-12-29T17:15:41.792Z,2.67
2022-12-29T17:18:13.938Z,2.80
2022-12-29T17:20:40.990Z,1.98
2022-12-29T17:23:21.138Z,1.40
2022-12-29T17:25:51.550Z,1.77
2022-12-29T17:28:24.612Z,2.38
2022-12-29T17:30:58.136Z,2.45
2022-12-29T17:33:25.009Z,1.52
2022-12-29T17:35:55.408Z,1.77
2022-12-29T17:38:28.747Z,1.80
2022-12-29T17:40:55.714Z,1.52
2022-12-29T17:43:22.543Z,2.00
2022-12-29T17:45:56.234Z,1.92
2022-12-29T17:48:23.333Z,3.15
2022-12-29T17:50:52.395Z,1.60
2022-12-29T17:53:24.626Z,1.50
2022-12-29T17:55:51.912Z,3.53
2022-12-29T17:58:21.093Z,3.20
2022-12-29T18:00:49.767Z,2.10
2022-12-29T18:03:18.957Z,1.80
2022-12-29T18:05:45.797Z,1.88
2022-12-29T18:08:12.663Z,2.67
2022-12-29T18:10:39.847Z,2.15
2022-12-29T18:13:06.927Z,2.10
2022-12-29T18:15:36.316Z,2.38
2022-12-29T18:18:14.863Z,2.80
2022-12-29T18:20:43.110Z,1.65
2022-12-29T18:23:37.290Z,2.22
2022-12-29T18:26:25.504Z,2.35
2022-12-29T18:28:55.065Z,3.30
2022-12-29T18:31:24.401Z,4.13
2022-12-29T18:33:53.025Z,2.10
2022-12-29T18:36:20.543Z,2.28
2022-12-29T18:38:47.845Z,2.60
2022-12-29T18:41:21.789Z,3.63
2022-12-29T18:43:48.438Z,2.38
2022-12-29T18:46:20.609Z,2.25
2022-12-29T18:48:49.484Z,2.75
2022-12-29T18:51:26.903Z,1.60
2022-12-29T18:53:54.532Z,2.67
2022-12-29T18:56:22.568Z,3.95
2022-12-29T18:58:50.025Z,4.72
2022-12-29T19:01:22.453Z,3.80
2022-12-29T19:03:49.525Z,3.97
2022-12-29T19:06:16.466Z,3.10
2022-12-29T19:08:43.386Z,3.63
2022-12-29T19:11:10.062Z,3.35
2022-12-29T19:13:36.900Z,3.63
2022-12-29T19:16:03.831Z,3.17
2022-12-29T19:18:53.317Z,2.55
2022-12-29T19:21:19.879Z,3.30
2022-12-29T19:23:46.648Z,3.45
2022-12-29T19:26:31.576Z,3.55
2022-12-29T19:28:59.619Z,3.35
2022-12-29T19:31:26.707Z,3.85
2022-12-29T19:33:53.621Z,3.42
2022-12-29T19:36:21.628Z,2.83
2022-12-29T19:38:48.271Z,3.65
2022-12-29T19:41:15.403Z,3.58
2022-12-29T19:43:42.232Z,2.78
2022-12-29T19:46:10.875Z,5.30
2022-12-29T19:48:37.756Z,2.90
2022-12-29T19:51:09.333Z,2.97
2022-12-29T19:53:36.775Z,4.05
2022-12-29T19:56:07.988Z,3.83
2022-12-29T19:58:36.175Z,4.20
2022-12-29T20:01:11.859Z,4.22
2022-12-29T20:03:39.396Z,4.13
2022-12-29T20:06:07.306Z,3.50
2022-12-29T20:08:35.546Z,4.28
2022-12-29T20:11:17.490Z,3.40
2022-12-29T20:13:44.391Z,3.35
2022-12-29T20:16:16.934Z,3.53
2022-12-29T20:18:44.265Z,3.10
2022-12-29T20:21:19.765Z,3.47
2022-12-29T20:23:47.653Z,4.85
2022-12-29T20:26:16.482Z,4.45
2022-12-29T20:28:43.328Z,3.40
2022-12-29T20:31:18.265Z,3.40
2022-12-29T20:33:45.795Z,3.42
2022-12-29T20:36:15.861Z,3.28
2022-12-29T20:38:43.998Z,2.55
2022-12-29T20:41:11.120Z,3.17
2022-12-29T20:43:37.708Z,3.53
2022-12-29T20:46:04.745Z,3.33
2022-12-29T20:48:32.247Z,3.35
2022-12-29T20:51:00.397Z,3.90
2022-12-29T20:53:28.512Z,2.70
2022-12-29T20:55:59.945Z,2.97
2022-12-29T20:58:26.664Z,3.53
2022-12-29T21:00:55.098Z,3.60
2022-12-29T21:03:22.828Z,3.42
2022-12-29T21:05:49.546Z,3.42
2022-12-29T21:08:16.200Z,3.45
2022-12-29T21:10:47.411Z,2.58
2022-12-29T21:13:14.576Z,3.00
2022-12-29T21:15:41.219Z,3.83
2022-12-29T21:18:07.821Z,3.28
2022-12-29T21:20:34.695Z,3.15
2022-12-29T21:23:02.582Z,2.63
2022-12-29T21:25:39.213Z,2.50
2022-12-29T21:28:07.682Z,3.53
2022-12-29T21:30:35.375Z,2.33
2022-12-29T21:33:02.218Z,3.03
2022-12-29T21:35:28.886Z,3.03
2022-12-29T21:37:55.510Z,3.10
2022-12-29T21:40:22.676Z,3.58
2022-12-29T21:42:49.573Z,2.20
2022-12-29T21:45:25.217Z,3.08
2022-12-29T21:48:12.197Z,3.22
2022-12-29T21:51:02.293Z,2.70
2022-12-29T21:53:38.399Z,2.88
2022-12-29T21:56:11.766Z,3.10
2022-12-29T21:58:58.455Z,3.78
2022-12-29T22:01:44.357Z,3.03
2022-12-29T22:04:34.761Z,2.45
2022-12-29T22:07:21.177Z,3.63
2022-12-29T22:10:06.695Z,4.10
2022-12-29T22:12:52.678Z,3.15
2022-12-29T22:15:19.310Z,2.70
2022-12-29T22:17:48.989Z,2.42
2022-12-29T22:20:17.246Z,2.50
2022-12-29T22:22:43.880Z,2.67
2022-12-29T22:25:10.732Z,2.38
2022-12-29T22:27:37.500Z,2.63
2022-12-29T22:30:05.052Z,2.88
2022-12-29T22:32:32.871Z,2.35
2022-12-29T22:35:05.628Z,3.30
2022-12-29T22:37:35.663Z,3.55
2022-12-29T22:40:02.346Z,2.38
2022-12-29T22:42:29.069Z,3.50
2022-12-29T22:44:55.717Z,2.58
2022-12-29T22:47:22.601Z,2.20
2022-12-29T22:49:49.338Z,3.08
2022-12-29T22:52:16.217Z,2.75
2022-12-29T22:54:42.863Z,2.95
2022-12-29T22:57:09.447Z,2.13
2022-12-29T22:59:36.074Z,2.30
2022-12-29T23:02:02.875Z,2.90
2022-12-29T23:07:16.216Z,2.38
2022-12-29T23:09:42.886Z,2.38
2022-12-29T23:12:09.614Z,2.40
2022-12-29T23:14:36.191Z,2.80
2022-12-29T23:17:02.901Z,3.42
2022-12-29T23:19:29.678Z,2.90
2022-12-29T23:21:56.290Z,2.58
2022-12-29T23:24:22.992Z,1.90
2022-12-29T23:26:49.631Z,2.70
2022-12-29T23:29:18.690Z,2.15
2022-12-29T23:31:46.588Z,2.92
2022-12-29T23:34:14.848Z,2.47
2022-12-29T23:36:41.792Z,1.88
2022-12-29T23:39:09.579Z,3.08
2022-12-29T23:41:36.630Z,2.97
2022-12-29T23:44:03.609Z,2.03
2022-12-29T23:46:31.320Z,2.40
2022-12-29T23:48:58.291Z,2.70
2022-12-29T23:51:25.003Z,3.20
2022-12-29T23:53:51.757Z,2.22
2022-12-29T23:56:21.643Z,2.13
2022-12-29T23:58:49.321Z,2.45
